sensor_id;sensor_type;location;lat;lon;timestamp;P1;durP1;ratioP1;P2;durP2;ratioP2
17993;SDS011;9122;48.406;9.984;2022-11-18T00:01:06;0.80;;;0.73;;
17993;SDS011;9122;48.406;9.984;2022-11-18T00:03:52;0.80;;;0.80;;
17993;SDS011;9122;48.406;9.984;2022-11-18T00:06:37;1.47;;;0.57;;
17993;SDS011;9122;48.406;9.984;2022-11-18T00:09:21;0.53;;;0.53;;
17993;SDS011;9122;48.406;9.984;2022-11-18T00:12:06;0.90;;;0.90;;
17993;SDS011;9122;48.406;9.984;2022-11-18T00:15:09;0.90;;;0.90;;
17993;SDS011;9122;48.406;9.984;2022-11-18T00:17:53;1.77;;;1.10;;
17993;SDS011;9122;48.406;9.984;2022-11-18T00:20:37;3.13;;;1.07;;
17993;SDS011;9122;48.406;9.984;2022-11-18T00:23:22;1.23;;;1.17;;
17993;SDS011;9122;48.406;9.984;2022-11-18T00:26:13;1.07;;;0.90;;
17993;SDS011;9122;48.406;9.984;2022-11-18T00:28:57;0.90;;;0.90;;
17993;SDS011;9122;48.406;9.984;2022-11-18T00:31:41;2.83;;;0.80;;
17993;SDS011;9122;48.406;9.984;2022-11-18T00:34:26;0.80;;;0.80;;
17993;SDS011;9122;48.406;9.984;2022-11-18T00:37:11;1.13;;;1.03;;
17993;SDS011;9122;48.406;9.984;2022-11-18T00:39:55;1.07;;;1.00;;
17993;SDS011;9122;48.406;9.984;2022-11-18T00:42:40;0.70;;;0.70;;
17993;SDS011;9122;48.406;9.984;2022-11-18T00:45:36;2.27;;;1.20;;
17993;SDS011;9122;48.406;9.984;2022-11-18T00:48:21;1.17;;;1.07;;
17993;SDS011;9122;48.406;9.984;2022-11-18T00:51:13;1.10;;;1.00;;
17993;SDS011;9122;48.406;9.984;2022-11-18T00:54:02;0.57;;;0.57;;
17993;SDS011;9122;48.406;9.984;2022-11-18T00:56:47;0.70;;;0.70;;
17993;SDS011;9122;48.406;9.984;2022-11-18T00:59:32;1.10;;;1.00;;
17993;SDS011;9122;48.406;9.984;2022-11-18T01:02:16;0.87;;;0.70;;
17993;SDS011;9122;48.406;9.984;2022-11-18T01:05:00;1.13;;;0.80;;
17993;SDS011;9122;48.406;9.984;2022-11-18T01:07:45;0.67;;;0.67;;
17993;SDS011;9122;48.406;9.984;2022-11-18T01:10:29;0.70;;;0.70;;
17993;SDS011;9122;48.406;9.984;2022-11-18T01:13:14;0.80;;;0.80;;
17993;SDS011;9122;48.406;9.984;2022-11-18T01:16:03;0.87;;;0.80;;
17993;SDS011;9122;48.406;9.984;2022-11-18T01:18:48;0.80;;;0.80;;
17993;SDS011;9122;48.406;9.984;2022-11-18T01:21:32;1.10;;;0.80;;
17993;SDS011;9122;48.406;9.984;2022-11-18T01:24:17;1.10;;;1.10;;
17993;SDS011;9122;48.406;9.984;2022-11-18T01:27:02;1.23;;;1.20;;
17993;SDS011;9122;48.406;9.984;2022-11-18T01:29:47;1.70;;;1.30;;
17993;SDS011;9122;48.406;9.984;2022-11-18T01:32:31;1.33;;;1.23;;
17993;SDS011;9122;48.406;9.984;2022-11-18T01:35:17;2.20;;;1.47;;
17993;SDS011;9122;48.406;9.984;2022-11-18T01:38:02;1.63;;;1.53;;
17993;SDS011;9122;48.406;9.984;2022-11-18T01:40:47;3.00;;;2.40;;
17993;SDS011;9122;48.406;9.984;2022-11-18T01:43:46;2.10;;;2.00;;
17993;SDS011;9122;48.406;9.984;2022-11-18T01:46:33;2.10;;;1.90;;
17993;SDS011;9122;48.406;9.984;2022-11-18T01:49:17;1.50;;;1.43;;
17993;SDS011;9122;48.406;9.984;2022-11-18T01:52:02;1.80;;;1.70;;
17993;SDS011;9122;48.406;9.984;2022-11-18T01:54:47;1.80;;;1.70;;
17993;SDS011;9122;48.406;9.984;2022-11-18T01:57:36;2.73;;;2.23;;
17993;SDS011;9122;48.406;9.984;2022-11-18T02:00:20;1.97;;;1.87;;
17993;SDS011;9122;48.406;9.984;2022-11-18T02:03:05;2.40;;;2.20;;
17993;SDS011;9122;48.406;9.984;2022-11-18T02:05:50;2.40;;;2.20;;
17993;SDS011;9122;48.406;9.984;2022-11-18T02:08:36;2.67;;;2.23;;
17993;SDS011;9122;48.406;9.984;2022-11-18T02:11:22;2.50;;;2.30;;
17993;SDS011;9122;48.406;9.984;2022-11-18T02:14:29;2.63;;;2.47;;
17993;SDS011;9122;48.406;9.984;2022-11-18T02:20:32;3.00;;;2.80;;
17993;SDS011;9122;48.406;9.984;2022-11-18T02:26:05;2.93;;;2.50;;
17993;SDS011;9122;48.406;9.984;2022-11-18T02:32:33;2.57;;;2.37;;
17993;SDS011;9122;48.406;9.984;2022-11-18T02:35:27;2.70;;;2.50;;
17993;SDS011;9122;48.406;9.984;2022-11-18T02:38:41;2.83;;;2.50;;
17993;SDS011;9122;48.406;9.984;2022-11-18T02:41:31;3.20;;;3.00;;
17993;SDS011;9122;48.406;9.984;2022-11-18T02:44:18;4.13;;;2.80;;
17993;SDS011;9122;48.406;9.984;2022-11-18T02:47:05;3.10;;;2.90;;
17993;SDS011;9122;48.406;9.984;2022-11-18T02:49:54;3.30;;;3.10;;
17993;SDS011;9122;48.406;9.984;2022-11-18T02:52:42;3.60;;;3.40;;
17993;SDS011;9122;48.406;9.984;2022-11-18T02:55:29;3.73;;;3.43;;
17993;SDS011;9122;48.406;9.984;2022-11-18T02:58:17;3.27;;;3.07;;
17993;SDS011;9122;48.406;9.984;2022-11-18T03:01:04;4.50;;;2.90;;
17993;SDS011;9122;48.406;9.984;2022-11-18T03:03:49;3.20;;;3.00;;
17993;SDS011;9122;48.406;9.984;2022-11-18T03:18:28;3.47;;;3.27;;
17993;SDS011;9122;48.406;9.984;2022-11-18T03:21:22;3.33;;;3.10;;
17993;SDS011;9122;48.406;9.984;2022-11-18T03:24:24;3.07;;;2.87;;
17993;SDS011;9122;48.406;9.984;2022-11-18T03:27:20;3.20;;;3.00;;
17993;SDS011;9122;48.406;9.984;2022-11-18T03:30:16;3.27;;;3.07;;
17993;SDS011;9122;48.406;9.984;2022-11-18T03:33:04;3.00;;;2.80;;
17993;SDS011;9122;48.406;9.984;2022-11-18T03:35:53;3.20;;;3.00;;
17993;SDS011;9122;48.406;9.984;2022-11-18T03:38:41;2.93;;;2.77;;
17993;SDS011;9122;48.406;9.984;2022-11-18T03:41:31;3.27;;;3.07;;
17993;SDS011;9122;48.406;9.984;2022-11-18T03:44:27;4.07;;;3.77;;
17993;SDS011;9122;48.406;9.984;2022-11-18T03:47:15;3.30;;;3.10;;
17993;SDS011;9122;48.406;9.984;2022-11-18T03:50:10;2.77;;;2.57;;
17993;SDS011;9122;48.406;9.984;2022-11-18T03:53:01;2.70;;;2.50;;
17993;SDS011;9122;48.406;9.984;2022-11-18T03:55:49;3.20;;;2.93;;
17993;SDS011;9122;48.406;9.984;2022-11-18T03:58:57;2.67;;;2.50;;
17993;SDS011;9122;48.406;9.984;2022-11-18T04:01:50;2.80;;;2.60;;
17993;SDS011;9122;48.406;9.984;2022-11-18T04:04:36;2.80;;;2.60;;
17993;SDS011;9122;48.406;9.984;2022-11-18T04:07:22;2.90;;;2.70;;
17993;SDS011;9122;48.406;9.984;2022-11-18T04:13:08;2.07;;;1.97;;
17993;SDS011;9122;48.406;9.984;2022-11-18T04:15:59;1.90;;;1.80;;
17993;SDS011;9122;48.406;9.984;2022-11-18T04:18:44;1.87;;;1.77;;
17993;SDS011;9122;48.406;9.984;2022-11-18T04:21:29;1.60;;;1.50;;
17993;SDS011;9122;48.406;9.984;2022-11-18T04:24:13;1.47;;;1.37;;
17993;SDS011;9122;48.406;9.984;2022-11-18T04:26:58;2.80;;;1.50;;
17993;SDS011;9122;48.406;9.984;2022-11-18T04:29:42;1.53;;;1.43;;
17993;SDS011;9122;48.406;9.984;2022-11-18T04:32:27;1.60;;;0.87;;
17993;SDS011;9122;48.406;9.984;2022-11-18T04:35:11;1.00;;;1.00;;
17993;SDS011;9122;48.406;9.984;2022-11-18T04:37:56;1.00;;;1.00;;
17993;SDS011;9122;48.406;9.984;2022-11-18T04:40:41;1.57;;;0.80;;
17993;SDS011;9122;48.406;9.984;2022-11-18T04:43:25;0.87;;;0.87;;
17993;SDS011;9122;48.406;9.984;2022-11-18T04:46:10;1.40;;;1.30;;
17993;SDS011;9122;48.406;9.984;2022-11-18T04:48:55;2.00;;;1.73;;
17993;SDS011;9122;48.406;9.984;2022-11-18T04:51:40;1.40;;;1.30;;
17993;SDS011;9122;48.406;9.984;2022-11-18T04:54:25;0.80;;;0.80;;
17993;SDS011;9122;48.406;9.984;2022-11-18T04:57:10;0.70;;;0.70;;
17993;SDS011;9122;48.406;9.984;2022-11-18T04:59:55;0.80;;;0.40;;
17993;SDS011;9122;48.406;9.984;2022-11-18T05:02:39;0.30;;;0.30;;
17993;SDS011;9122;48.406;9.984;2022-11-18T05:05:24;0.80;;;0.60;;
17993;SDS011;9122;48.406;9.984;2022-11-18T05:08:08;0.40;;;0.40;;
17993;SDS011;9122;48.406;9.984;2022-11-18T05:10:53;0.80;;;0.80;;
17993;SDS011;9122;48.406;9.984;2022-11-18T05:13:57;0.47;;;0.47;;
17993;SDS011;9122;48.406;9.984;2022-11-18T05:16:42;0.77;;;0.40;;
17993;SDS011;9122;48.406;9.984;2022-11-18T05:19:27;0.40;;;0.40;;
17993;SDS011;9122;48.406;9.984;2022-11-18T05:22:13;0.40;;;0.40;;
17993;SDS011;9122;48.406;9.984;2022-11-18T05:24:57;0.67;;;0.67;;
17993;SDS011;9122;48.406;9.984;2022-11-18T05:27:42;0.50;;;0.50;;
17993;SDS011;9122;48.406;9.984;2022-11-18T05:30:27;0.40;;;0.40;;
17993;SDS011;9122;48.406;9.984;2022-11-18T05:33:11;1.43;;;0.57;;
17993;SDS011;9122;48.406;9.984;2022-11-18T05:35:56;0.67;;;0.30;;
17993;SDS011;9122;48.406;9.984;2022-11-18T05:38:40;0.40;;;0.40;;
17993;SDS011;9122;48.406;9.984;2022-11-18T05:41:25;0.20;;;0.20;;
17993;SDS011;9122;48.406;9.984;2022-11-18T05:44:28;0.60;;;0.40;;
17993;SDS011;9122;48.406;9.984;2022-11-18T05:47:12;0.67;;;0.60;;
17993;SDS011;9122;48.406;9.984;2022-11-18T05:49:57;0.57;;;0.57;;
17993;SDS011;9122;48.406;9.984;2022-11-18T05:52:40;0.50;;;0.50;;
17993;SDS011;9122;48.406;9.984;2022-11-18T05:55:26;0.50;;;0.50;;
17993;SDS011;9122;48.406;9.984;2022-11-18T05:58:20;0.70;;;0.70;;
17993;SDS011;9122;48.406;9.984;2022-11-18T06:01:04;1.63;;;0.60;;
17993;SDS011;9122;48.406;9.984;2022-11-18T06:03:50;0.67;;;0.67;;
17993;SDS011;9122;48.406;9.984;2022-11-18T06:06:35;0.50;;;0.50;;
17993;SDS011;9122;48.406;9.984;2022-11-18T06:09:20;1.00;;;0.50;;
17993;SDS011;9122;48.406;9.984;2022-11-18T06:12:10;1.73;;;0.47;;
17993;SDS011;9122;48.406;9.984;2022-11-18T06:18:20;0.60;;;0.60;;
17993;SDS011;9122;48.406;9.984;2022-11-18T06:21:09;0.60;;;0.60;;
17993;SDS011;9122;48.406;9.984;2022-11-18T06:23:54;0.50;;;0.50;;
17993;SDS011;9122;48.406;9.984;2022-11-18T06:26:49;0.40;;;0.30;;
17993;SDS011;9122;48.406;9.984;2022-11-18T06:29:34;1.60;;;0.20;;
17993;SDS011;9122;48.406;9.984;2022-11-18T06:32:20;0.20;;;0.20;;
17993;SDS011;9122;48.406;9.984;2022-11-18T06:35:04;0.30;;;0.30;;
17993;SDS011;9122;48.406;9.984;2022-11-18T06:37:49;0.20;;;0.17;;
17993;SDS011;9122;48.406;9.984;2022-11-18T06:40:34;0.20;;;0.20;;
17993;SDS011;9122;48.406;9.984;2022-11-18T06:43:20;0.23;;;0.23;;
17993;SDS011;9122;48.406;9.984;2022-11-18T06:46:24;0.10;;;0.10;;
17993;SDS011;9122;48.406;9.984;2022-11-18T06:49:27;1.27;;;0.30;;
17993;SDS011;9122;48.406;9.984;2022-11-18T06:52:11;0.50;;;0.10;;
17993;SDS011;9122;48.406;9.984;2022-11-18T06:54:56;1.13;;;1.07;;
17993;SDS011;9122;48.406;9.984;2022-11-18T06:57:41;0.90;;;0.90;;
17993;SDS011;9122;48.406;9.984;2022-11-18T07:00:25;1.37;;;1.27;;
17993;SDS011;9122;48.406;9.984;2022-11-18T07:03:10;4.40;;;2.70;;
17993;SDS011;9122;48.406;9.984;2022-11-18T07:05:54;3.27;;;2.10;;
17993;SDS011;9122;48.406;9.984;2022-11-18T07:08:41;2.83;;;2.27;;
17993;SDS011;9122;48.406;9.984;2022-11-18T07:11:26;2.57;;;2.37;;
17993;SDS011;9122;48.406;9.984;2022-11-18T07:14:11;2.30;;;2.10;;
17993;SDS011;9122;48.406;9.984;2022-11-18T07:16:56;1.40;;;0.90;;
17993;SDS011;9122;48.406;9.984;2022-11-18T07:19:40;0.70;;;0.70;;
17993;SDS011;9122;48.406;9.984;2022-11-18T07:22:24;0.93;;;0.93;;
17993;SDS011;9122;48.406;9.984;2022-11-18T07:25:08;0.60;;;0.60;;
17993;SDS011;9122;48.406;9.984;2022-11-18T07:27:59;0.80;;;0.80;;
17993;SDS011;9122;48.406;9.984;2022-11-18T07:30:44;0.77;;;0.77;;
17993;SDS011;9122;48.406;9.984;2022-11-18T07:33:29;1.37;;;0.90;;
17993;SDS011;9122;48.406;9.984;2022-11-18T07:36:15;1.43;;;1.33;;
17993;SDS011;9122;48.406;9.984;2022-11-18T07:39:02;0.50;;;0.50;;
17993;SDS011;9122;48.406;9.984;2022-11-18T07:41:50;0.50;;;0.50;;
17993;SDS011;9122;48.406;9.984;2022-11-18T07:44:35;0.77;;;0.73;;
17993;SDS011;9122;48.406;9.984;2022-11-18T07:47:19;0.50;;;0.50;;
17993;SDS011;9122;48.406;9.984;2022-11-18T07:50:03;0.60;;;0.57;;
17993;SDS011;9122;48.406;9.984;2022-11-18T07:52:48;0.63;;;0.63;;
17993;SDS011;9122;48.406;9.984;2022-11-18T07:55:32;0.43;;;0.43;;
17993;SDS011;9122;48.406;9.984;2022-11-18T07:58:16;0.80;;;0.70;;
17993;SDS011;9122;48.406;9.984;2022-11-18T08:01:07;0.87;;;0.80;;
17993;SDS011;9122;48.406;9.984;2022-11-18T08:03:56;0.40;;;0.40;;
17993;SDS011;9122;48.406;9.984;2022-11-18T08:06:46;0.50;;;0.30;;
17993;SDS011;9122;48.406;9.984;2022-11-18T08:09:31;0.30;;;0.30;;
17993;SDS011;9122;48.406;9.984;2022-11-18T08:12:16;0.40;;;0.40;;
17993;SDS011;9122;48.406;9.984;2022-11-18T08:15:00;0.37;;;0.10;;
17993;SDS011;9122;48.406;9.984;2022-11-18T08:17:45;0.20;;;0.20;;
17993;SDS011;9122;48.406;9.984;2022-11-18T08:20:32;0.30;;;0.30;;
17993;SDS011;9122;48.406;9.984;2022-11-18T08:23:17;0.53;;;0.40;;
17993;SDS011;9122;48.406;9.984;2022-11-18T08:26:09;0.23;;;0.20;;
17993;SDS011;9122;48.406;9.984;2022-11-18T08:29:00;0.50;;;0.30;;
17993;SDS011;9122;48.406;9.984;2022-11-18T08:31:45;0.40;;;0.40;;
17993;SDS011;9122;48.406;9.984;2022-11-18T08:34:29;0.40;;;0.40;;
17993;SDS011;9122;48.406;9.984;2022-11-18T08:37:14;0.50;;;0.50;;
17993;SDS011;9122;48.406;9.984;2022-11-18T08:39:58;0.50;;;0.50;;
17993;SDS011;9122;48.406;9.984;2022-11-18T08:42:43;0.57;;;0.40;;
17993;SDS011;9122;48.406;9.984;2022-11-18T08:45:27;0.93;;;0.70;;
17993;SDS011;9122;48.406;9.984;2022-11-18T08:48:12;0.40;;;0.40;;
17993;SDS011;9122;48.406;9.984;2022-11-18T08:50:57;0.80;;;0.70;;
17993;SDS011;9122;48.406;9.984;2022-11-18T08:53:42;0.97;;;0.50;;
17993;SDS011;9122;48.406;9.984;2022-11-18T08:56:26;1.13;;;0.60;;
17993;SDS011;9122;48.406;9.984;2022-11-18T08:59:10;0.70;;;0.50;;
17993;SDS011;9122;48.406;9.984;2022-11-18T09:01:55;1.17;;;0.90;;
17993;SDS011;9122;48.406;9.984;2022-11-18T09:04:40;3.27;;;1.50;;
17993;SDS011;9122;48.406;9.984;2022-11-18T09:07:26;3.83;;;1.90;;
17993;SDS011;9122;48.406;9.984;2022-11-18T09:10:10;4.63;;;1.73;;
17993;SDS011;9122;48.406;9.984;2022-11-18T09:12:54;4.30;;;2.13;;
17993;SDS011;9122;48.406;9.984;2022-11-18T09:15:39;5.37;;;2.03;;
17993;SDS011;9122;48.406;9.984;2022-11-18T09:18:25;3.63;;;1.60;;
17993;SDS011;9122;48.406;9.984;2022-11-18T09:21:10;3.40;;;1.70;;
17993;SDS011;9122;48.406;9.984;2022-11-18T09:23:57;1.40;;;1.10;;
17993;SDS011;9122;48.406;9.984;2022-11-18T09:26:42;1.03;;;0.70;;
17993;SDS011;9122;48.406;9.984;2022-11-18T09:29:27;0.53;;;0.50;;
17993;SDS011;9122;48.406;9.984;2022-11-18T09:32:11;1.43;;;0.70;;
17993;SDS011;9122;48.406;9.984;2022-11-18T09:34:56;1.03;;;0.60;;
17993;SDS011;9122;48.406;9.984;2022-11-18T09:37:41;0.50;;;0.50;;
17993;SDS011;9122;48.406;9.984;2022-11-18T09:40:25;0.73;;;0.50;;
17993;SDS011;9122;48.406;9.984;2022-11-18T09:43:14;0.27;;;0.27;;
17993;SDS011;9122;48.406;9.984;2022-11-18T09:46:19;0.27;;;0.27;;
17993;SDS011;9122;48.406;9.984;2022-11-18T09:49:26;0.20;;;0.20;;
17993;SDS011;9122;48.406;9.984;2022-11-18T09:55:03;0.10;;;0.10;;
17993;SDS011;9122;48.406;9.984;2022-11-18T09:57:55;0.73;;;0.20;;
17993;SDS011;9122;48.406;9.984;2022-11-18T10:00:42;0.10;;;0.10;;
17993;SDS011;9122;48.406;9.984;2022-11-18T10:03:28;0.30;;;0.30;;
17993;SDS011;9122;48.406;9.984;2022-11-18T10:24:26;0.27;;;0.20;;
17993;SDS011;9122;48.406;9.984;2022-11-18T10:27:25;0.20;;;0.20;;
17993;SDS011;9122;48.406;9.984;2022-11-18T10:30:18;0.40;;;0.30;;
17993;SDS011;9122;48.406;9.984;2022-11-18T10:39:08;0.40;;;0.40;;
17993;SDS011;9122;48.406;9.984;2022-11-18T10:41:57;0.30;;;0.30;;
17993;SDS011;9122;48.406;9.984;2022-11-18T10:44:48;0.40;;;0.40;;
17993;SDS011;9122;48.406;9.984;2022-11-18T10:47:33;0.70;;;0.20;;
17993;SDS011;9122;48.406;9.984;2022-11-18T10:53:35;0.73;;;0.40;;
17993;SDS011;9122;48.406;9.984;2022-11-18T10:56:20;0.53;;;0.53;;
17993;SDS011;9122;48.406;9.984;2022-11-18T10:59:04;0.40;;;0.40;;
17993;SDS011;9122;48.406;9.984;2022-11-18T11:05:14;0.40;;;0.40;;
17993;SDS011;9122;48.406;9.984;2022-11-18T11:11:00;1.07;;;1.00;;
17993;SDS011;9122;48.406;9.984;2022-11-18T11:13:44;0.40;;;0.40;;
17993;SDS011;9122;48.406;9.984;2022-11-18T11:16:28;0.30;;;0.30;;
17993;SDS011;9122;48.406;9.984;2022-11-18T11:19:16;0.33;;;0.33;;
17993;SDS011;9122;48.406;9.984;2022-11-18T11:22:07;0.30;;;0.30;;
17993;SDS011;9122;48.406;9.984;2022-11-18T11:24:54;0.23;;;0.23;;
17993;SDS011;9122;48.406;9.984;2022-11-18T11:30:27;0.40;;;0.40;;
17993;SDS011;9122;48.406;9.984;2022-11-18T11:36:51;0.63;;;0.63;;
17993;SDS011;9122;48.406;9.984;2022-11-18T11:48:57;0.60;;;0.60;;
17993;SDS011;9122;48.406;9.984;2022-11-18T11:52:10;0.70;;;0.70;;
17993;SDS011;9122;48.406;9.984;2022-11-18T12:01:18;0.90;;;0.70;;
17993;SDS011;9122;48.406;9.984;2022-11-18T12:07:32;0.50;;;0.50;;
17993;SDS011;9122;48.406;9.984;2022-11-18T12:13:36;0.40;;;0.30;;
17993;SDS011;9122;48.406;9.984;2022-11-18T12:19:22;0.50;;;0.50;;
17993;SDS011;9122;48.406;9.984;2022-11-18T12:22:07;0.33;;;0.33;;
17993;SDS011;9122;48.406;9.984;2022-11-18T12:24:52;0.50;;;0.43;;
17993;SDS011;9122;48.406;9.984;2022-11-18T12:30:29;0.37;;;0.37;;
17993;SDS011;9122;48.406;9.984;2022-11-18T12:33:14;0.40;;;0.40;;
17993;SDS011;9122;48.406;9.984;2022-11-18T12:36:00;0.47;;;0.47;;
17993;SDS011;9122;48.406;9.984;2022-11-18T12:38:44;0.50;;;0.50;;
17993;SDS011;9122;48.406;9.984;2022-11-18T12:44:42;0.37;;;0.37;;
17993;SDS011;9122;48.406;9.984;2022-11-18T12:50:45;0.20;;;0.20;;
17993;SDS011;9122;48.406;9.984;2022-11-18T12:53:32;0.30;;;0.30;;
17993;SDS011;9122;48.406;9.984;2022-11-18T12:59:10;0.20;;;0.20;;
17993;SDS011;9122;48.406;9.984;2022-11-18T13:02:29;0.30;;;0.30;;
17993;SDS011;9122;48.406;9.984;2022-11-18T13:05:13;0.20;;;0.20;;
17993;SDS011;9122;48.406;9.984;2022-11-18T13:08:09;0.30;;;0.30;;
17993;SDS011;9122;48.406;9.984;2022-11-18T13:11:13;0.47;;;0.47;;
17993;SDS011;9122;48.406;9.984;2022-11-18T13:17:37;0.30;;;0.30;;
17993;SDS011;9122;48.406;9.984;2022-11-18T13:20:36;0.30;;;0.30;;
17993;SDS011;9122;48.406;9.984;2022-11-18T13:23:29;0.70;;;0.43;;
17993;SDS011;9122;48.406;9.984;2022-11-18T13:26:40;0.33;;;0.33;;
17993;SDS011;9122;48.406;9.984;2022-11-18T13:29:29;0.43;;;0.43;;
17993;SDS011;9122;48.406;9.984;2022-11-18T13:32:56;0.30;;;0.30;;
17993;SDS011;9122;48.406;9.984;2022-11-18T13:35:41;1.23;;;0.57;;
17993;SDS011;9122;48.406;9.984;2022-11-18T13:38:26;0.57;;;0.57;;
17993;SDS011;9122;48.406;9.984;2022-11-18T13:41:13;1.60;;;0.70;;
17993;SDS011;9122;48.406;9.984;2022-11-18T13:47:05;0.60;;;0.60;;
17993;SDS011;9122;48.406;9.984;2022-11-18T13:53:29;0.57;;;0.50;;
17993;SDS011;9122;48.406;9.984;2022-11-18T13:56:26;0.57;;;0.57;;
17993;SDS011;9122;48.406;9.984;2022-11-18T13:59:14;0.73;;;0.73;;
17993;SDS011;9122;48.406;9.984;2022-11-18T14:02:02;0.67;;;0.67;;
17993;SDS011;9122;48.406;9.984;2022-11-18T14:04:53;0.73;;;0.43;;
17993;SDS011;9122;48.406;9.984;2022-11-18T14:11:05;0.70;;;0.70;;
17993;SDS011;9122;48.406;9.984;2022-11-18T14:13:51;0.40;;;0.40;;
17993;SDS011;9122;48.406;9.984;2022-11-18T14:16:38;1.00;;;0.50;;
17993;SDS011;9122;48.406;9.984;2022-11-18T14:19:28;2.20;;;0.60;;
17993;SDS011;9122;48.406;9.984;2022-11-18T14:22:17;1.07;;;0.40;;
17993;SDS011;9122;48.406;9.984;2022-11-18T14:28:08;0.50;;;0.47;;
17993;SDS011;9122;48.406;9.984;2022-11-18T14:31:05;0.37;;;0.37;;
17993;SDS011;9122;48.406;9.984;2022-11-18T14:34:24;0.30;;;0.30;;
17993;SDS011;9122;48.406;9.984;2022-11-18T14:37:09;0.53;;;0.53;;
17993;SDS011;9122;48.406;9.984;2022-11-18T14:39:56;0.53;;;0.53;;
17993;SDS011;9122;48.406;9.984;2022-11-18T14:42:42;0.50;;;0.50;;
17993;SDS011;9122;48.406;9.984;2022-11-18T14:45:26;0.80;;;0.80;;
17993;SDS011;9122;48.406;9.984;2022-11-18T14:48:11;0.60;;;0.60;;
17993;SDS011;9122;48.406;9.984;2022-11-18T14:51:01;0.70;;;0.70;;
17993;SDS011;9122;48.406;9.984;2022-11-18T14:53:45;1.07;;;0.70;;
17993;SDS011;9122;48.406;9.984;2022-11-18T14:56:29;0.60;;;0.60;;
17993;SDS011;9122;48.406;9.984;2022-11-18T14:59:16;0.50;;;0.40;;
17993;SDS011;9122;48.406;9.984;2022-11-18T15:02:02;2.37;;;0.77;;
17993;SDS011;9122;48.406;9.984;2022-11-18T15:04:57;0.60;;;0.50;;
17993;SDS011;9122;48.406;9.984;2022-11-18T15:07:42;2.40;;;0.70;;
17993;SDS011;9122;48.406;9.984;2022-11-18T15:10:28;0.50;;;0.50;;
17993;SDS011;9122;48.406;9.984;2022-11-18T15:13:12;0.57;;;0.57;;
17993;SDS011;9122;48.406;9.984;2022-11-18T15:15:57;0.70;;;0.70;;
17993;SDS011;9122;48.406;9.984;2022-11-18T15:18:42;0.80;;;0.70;;
17993;SDS011;9122;48.406;9.984;2022-11-18T15:21:28;0.70;;;0.70;;
17993;SDS011;9122;48.406;9.984;2022-11-18T15:24:13;0.83;;;0.83;;
17993;SDS011;9122;48.406;9.984;2022-11-18T15:26:57;1.03;;;0.93;;
17993;SDS011;9122;48.406;9.984;2022-11-18T15:29:42;0.70;;;0.70;;
17993;SDS011;9122;48.406;9.984;2022-11-18T15:32:26;0.87;;;0.87;;
17993;SDS011;9122;48.406;9.984;2022-11-18T15:35:11;1.00;;;0.80;;
17993;SDS011;9122;48.406;9.984;2022-11-18T15:37:57;0.97;;;0.97;;
17993;SDS011;9122;48.406;9.984;2022-11-18T15:40:41;1.67;;;0.90;;
17993;SDS011;9122;48.406;9.984;2022-11-18T15:43:25;0.80;;;0.80;;
17993;SDS011;9122;48.406;9.984;2022-11-18T15:46:09;1.13;;;1.03;;
17993;SDS011;9122;48.406;9.984;2022-11-18T15:48:55;1.10;;;1.00;;
17993;SDS011;9122;48.406;9.984;2022-11-18T15:51:40;1.30;;;1.20;;
17993;SDS011;9122;48.406;9.984;2022-11-18T15:54:25;1.30;;;1.20;;
17993;SDS011;9122;48.406;9.984;2022-11-18T15:57:10;1.43;;;1.33;;
17993;SDS011;9122;48.406;9.984;2022-11-18T15:59:54;1.30;;;1.20;;
17993;SDS011;9122;48.406;9.984;2022-11-18T16:02:39;1.50;;;1.40;;
17993;SDS011;9122;48.406;9.984;2022-11-18T16:05:24;1.00;;;1.00;;
17993;SDS011;9122;48.406;9.984;2022-11-18T16:08:09;1.60;;;1.17;;
17993;SDS011;9122;48.406;9.984;2022-11-18T16:10:53;1.73;;;1.57;;
17993;SDS011;9122;48.406;9.984;2022-11-18T16:14:05;1.80;;;1.70;;
17993;SDS011;9122;48.406;9.984;2022-11-18T16:16:52;1.60;;;1.50;;
17993;SDS011;9122;48.406;9.984;2022-11-18T16:19:38;1.73;;;1.60;;
17993;SDS011;9122;48.406;9.984;2022-11-18T16:22:22;3.97;;;1.77;;
17993;SDS011;9122;48.406;9.984;2022-11-18T16:25:07;1.70;;;1.60;;
17993;SDS011;9122;48.406;9.984;2022-11-18T16:28:02;2.00;;;1.80;;
17993;SDS011;9122;48.406;9.984;2022-11-18T16:30:47;2.13;;;1.93;;
17993;SDS011;9122;48.406;9.984;2022-11-18T16:33:51;1.70;;;1.60;;
17993;SDS011;9122;48.406;9.984;2022-11-18T16:36:36;1.50;;;1.40;;
17993;SDS011;9122;48.406;9.984;2022-11-18T16:39:22;1.40;;;1.30;;
17993;SDS011;9122;48.406;9.984;2022-11-18T16:42:09;1.70;;;1.60;;
17993;SDS011;9122;48.406;9.984;2022-11-18T16:44:55;1.50;;;1.40;;
17993;SDS011;9122;48.406;9.984;2022-11-18T16:47:39;3.07;;;2.70;;
17993;SDS011;9122;48.406;9.984;2022-11-18T16:50:24;2.30;;;2.10;;
17993;SDS011;9122;48.406;9.984;2022-11-18T16:53:08;1.87;;;1.77;;
17993;SDS011;9122;48.406;9.984;2022-11-18T16:55:54;1.87;;;1.73;;
17993;SDS011;9122;48.406;9.984;2022-11-18T16:58:46;2.80;;;2.60;;
17993;SDS011;9122;48.406;9.984;2022-11-18T17:01:31;4.97;;;4.47;;
17993;SDS011;9122;48.406;9.984;2022-11-18T17:04:17;3.00;;;2.80;;
17993;SDS011;9122;48.406;9.984;2022-11-18T17:07:03;4.80;;;4.30;;
17993;SDS011;9122;48.406;9.984;2022-11-18T17:09:49;5.47;;;5.07;;
17993;SDS011;9122;48.406;9.984;2022-11-18T17:12:34;5.17;;;4.63;;
17993;SDS011;9122;48.406;9.984;2022-11-18T17:15:18;5.60;;;4.70;;
17993;SDS011;9122;48.406;9.984;2022-11-18T17:18:03;4.67;;;3.93;;
17993;SDS011;9122;48.406;9.984;2022-11-18T17:20:48;3.57;;;3.27;;
17993;SDS011;9122;48.406;9.984;2022-11-18T17:23:32;4.27;;;3.40;;
17993;SDS011;9122;48.406;9.984;2022-11-18T17:26:18;4.40;;;3.97;;
17993;SDS011;9122;48.406;9.984;2022-11-18T17:29:04;4.17;;;3.87;;
17993;SDS011;9122;48.406;9.984;2022-11-18T17:31:48;4.83;;;4.40;;
17993;SDS011;9122;48.406;9.984;2022-11-18T17:34:33;4.77;;;4.37;;
17993;SDS011;9122;48.406;9.984;2022-11-18T17:37:17;4.90;;;4.50;;
17993;SDS011;9122;48.406;9.984;2022-11-18T17:40:02;4.30;;;3.90;;
17993;SDS011;9122;48.406;9.984;2022-11-18T17:42:48;3.90;;;3.47;;
17993;SDS011;9122;48.406;9.984;2022-11-18T17:45:34;3.80;;;3.50;;
17993;SDS011;9122;48.406;9.984;2022-11-18T17:48:24;4.47;;;3.60;;
17993;SDS011;9122;48.406;9.984;2022-11-18T17:51:09;3.37;;;3.07;;
17993;SDS011;9122;48.406;9.984;2022-11-18T17:53:54;3.00;;;2.80;;
17993;SDS011;9122;48.406;9.984;2022-11-18T17:56:39;4.27;;;3.30;;
17993;SDS011;9122;48.406;9.984;2022-11-18T17:59:23;5.37;;;3.83;;
17993;SDS011;9122;48.406;9.984;2022-11-18T18:02:09;6.43;;;4.60;;
17993;SDS011;9122;48.406;9.984;2022-11-18T18:04:55;4.20;;;3.90;;
17993;SDS011;9122;48.406;9.984;2022-11-18T18:07:40;4.83;;;4.43;;
17993;SDS011;9122;48.406;9.984;2022-11-18T18:10:25;4.20;;;3.90;;
17993;SDS011;9122;48.406;9.984;2022-11-18T18:13:10;4.87;;;4.37;;
17993;SDS011;9122;48.406;9.984;2022-11-18T18:16:14;4.40;;;4.10;;
17993;SDS011;9122;48.406;9.984;2022-11-18T18:19:00;4.00;;;3.47;;
17993;SDS011;9122;48.406;9.984;2022-11-18T18:21:45;3.47;;;3.17;;
17993;SDS011;9122;48.406;9.984;2022-11-18T18:24:30;3.20;;;2.90;;
17993;SDS011;9122;48.406;9.984;2022-11-18T18:27:15;2.57;;;2.37;;
17993;SDS011;9122;48.406;9.984;2022-11-18T18:29:59;3.07;;;2.73;;
17993;SDS011;9122;48.406;9.984;2022-11-18T18:32:44;2.90;;;2.70;;
17993;SDS011;9122;48.406;9.984;2022-11-18T18:35:28;3.13;;;2.83;;
17993;SDS011;9122;48.406;9.984;2022-11-18T18:38:15;5.53;;;3.80;;
17993;SDS011;9122;48.406;9.984;2022-11-18T18:41:06;4.10;;;3.80;;
17993;SDS011;9122;48.406;9.984;2022-11-18T18:44:04;4.03;;;3.80;;
17993;SDS011;9122;48.406;9.984;2022-11-18T18:46:48;4.40;;;4.10;;
17993;SDS011;9122;48.406;9.984;2022-11-18T18:49:33;4.70;;;4.40;;
17993;SDS011;9122;48.406;9.984;2022-11-18T18:52:18;4.83;;;4.40;;
17993;SDS011;9122;48.406;9.984;2022-11-18T18:55:02;4.90;;;4.50;;
17993;SDS011;9122;48.406;9.984;2022-11-18T18:57:47;6.43;;;5.50;;
17993;SDS011;9122;48.406;9.984;2022-11-18T19:00:32;6.70;;;6.10;;
17993;SDS011;9122;48.406;9.984;2022-11-18T19:03:17;10.50;;;6.27;;
17993;SDS011;9122;48.406;9.984;2022-11-18T19:06:18;7.27;;;6.57;;
17993;SDS011;9122;48.406;9.984;2022-11-18T19:09:04;7.43;;;6.73;;